Riva, MD (21140)

8:06 PM EDT on September 03, 2015 (GMT -0400)
Sylvan Shores | | Change Station
CLOSE
Current Station
Personal Weather Station
Location: Riva, MD
Elevation: 50 ft
Nearby Weather Stations

Elev 50 ft 38.96 °N, 76.58 °W | Updated 16 seconds ago

Clear
Clear
81.4 °F
Feels Like 86 °F
N
0.0
Wind Variable Wind from SW
Gusts 0.0 mph

Today
High -- | Low -- °F
--% Chance of Precip.
Yesterday
High -- | Low -- °F
Precip. -- in
6:36 AM 7:34 PM
Waning Gibbous, 65% visible
Pressure 29.86 in
Visibility 7.0 miles
Clouds Clear
Heat Index 86 °F
Dew Point 72 °F
Humidity 74%
Rainfall 0.00 in
Snow Depth Not available.
UV 0 out of 12
Pollen 10.10 out of 12
Air Quality Not available.
Flu Activity Not available.
METAR KNAK 032354Z AUTO 00000KT 7SM CLR 28/23 A2986 RMK AO2 SLP112 T02780233 10306 20278 53006
Pressure 29.86 in
Visibility 7.0 miles
Clouds Clear
Heat Index 86 °F
Dew Point 72 °F
Humidity 74%
Rainfall 0.00 in
Snow Depth Not available.
UV 0 out of 12
Pollen 10.10 out of 12
Air Quality Not available.
Flu Activity Not available.
METAR KNAK 032354Z AUTO 00000KT 7SM CLR 28/23 A2986 RMK AO2 SLP112 T02780233 10306 20278 53006

10-Day Weather Forecast

×

Almanac

Astronomy

Sep. 03, 2015 Rise Set
Actual Time
Civil Twilight
Nautical Twilight
Astronomical Twilight
Moon
Length of Visible Light
Length of Day
Tomorrow will be .
, % of the Moon is Illuminated

Today's Extremes

State Highs State Lows

Community

WunderPhotos

Upload Photos

1,852,069 photos uploaded!

WunderBlogs® & News

Nearby

Air Quality

  Air Quality AQ Index Pollutant
Not available.

Snow Depth

Station Depth Elevation

Earthquake Activity

City Distance Mag. Time & Date
Minimum magnitude displayed is 2.5.

Coastal Water Temperatures

Place Temperature

Stations

Nearby Weather Stations

Station Location Temp. Windchill Dew Point Humidity Wind Precip. Elev Updated Type